Time;durP1;ratioP1;P1;durP2;ratioP2;P2;SDS_P1;SDS_P2;PMS_P1;PMS_P2;Temp;Humidity;BMP_temperature;BMP_pressure;BME280_temperature;BME280_humidity;BME280_pressure;Samples;Min_cycle;Max_cycle;Signal;HPM_P1;HPM_P2
2021/03/04 00:01:28;;;;;;;3.33;1.85;;;17.30;40.90;;;;;;4973027;29;20152;-81
2021/03/04 00:03:55;;;;;;;2.08;1.83;;;17.30;41.50;;;;;;4956536;29;20172;-81
2021/03/04 00:06:21;;;;;;;2.38;1.83;;;17.30;41.00;;;;;;4956785;29;20186;-81
2021/03/04 00:08:50;;;;;;;2.38;1.90;;;17.30;40.90;;;;;;4956715;29;20217;-82
2021/03/04 00:11:25;;;;;;;2.13;1.73;;;17.30;40.90;;;;;;4956653;29;20181;-82
2021/03/04 00:13:53;;;;;;;4.03;1.88;;;17.30;41.00;;;;;;4955524;29;20169;-81
2021/03/04 00:16:20;;;;;;;3.17;1.70;;;17.30;41.00;;;;;;4956353;29;20174;-82
2021/03/04 00:18:48;;;;;;;2.83;1.90;;;17.30;41.00;;;;;;4972495;29;20169;-81
2021/03/04 00:21:15;;;;;;;3.17;1.90;;;17.30;41.10;;;;;;4939959;29;20169;-81
2021/03/04 00:23:43;;;;;;;1.90;1.70;;;17.30;41.00;;;;;;4940232;29;20178;-81
2021/03/04 00:26:13;;;;;;;3.78;1.80;;;17.30;41.10;;;;;;4972098;29;20236;-81
2021/03/04 00:28:41;;;;;;;1.70;1.40;;;17.30;41.20;;;;;;4971905;29;20181;-82
2021/03/04 00:31:07;;;;;;;3.60;1.83;;;17.30;41.20;;;;;;4972341;29;20161;-81
2021/03/04 00:33:34;;;;;;;2.33;1.98;;;17.20;41.10;;;;;;4955739;29;20724;-82
2021/03/04 00:36:00;;;;;;;1.70;1.50;;;17.20;41.20;;;;;;4971703;29;20257;-81
2021/03/04 00:38:28;;;;;;;3.50;1.75;;;17.30;41.30;;;;;;4940829;29;20169;-81
2021/03/04 00:40:53;;;;;;;2.05;1.70;;;17.20;41.20;;;;;;4939567;29;20177;-81
2021/03/04 00:43:19;;;;;;;2.63;1.65;;;17.20;41.20;;;;;;4939874;29;20663;-82
2021/03/04 00:45:45;;;;;;;2.35;1.77;;;17.30;41.30;;;;;;4955196;29;20220;-81
2021/03/04 00:48:11;;;;;;;2.35;1.70;;;17.20;41.30;;;;;;4939677;29;20173;-82
2021/03/04 00:50:38;;;;;;;2.75;1.75;;;17.20;41.30;;;;;;4955583;29;20153;-82
2021/03/04 00:53:07;;;;;;;2.50;1.70;;;17.20;41.20;;;;;;4954816;29;20161;-82
2021/03/04 00:55:34;;;;;;;1.65;1.40;;;17.20;41.30;;;;;;4938154;29;20177;-82
2021/03/04 00:58:02;;;;;;;2.20;1.98;;;17.30;41.20;;;;;;4954553;29;20177;-81
2021/03/04 01:00:31;;;;;;;2.85;1.70;;;17.20;41.20;;;;;;4969932;29;20157;-81
2021/03/04 01:03:04;;;;;;;2.30;1.85;;;17.30;41.20;;;;;;4953679;29;20169;-81
2021/03/04 01:05:31;;;;;;;2.20;1.60;;;17.20;41.30;;;;;;4969473;29;20232;-81
2021/03/04 01:07:58;;;;;;;2.58;1.63;;;17.20;41.30;;;;;;4954451;29;20226;-82
2021/03/04 01:10:51;;;;;;;2.20;1.60;;;17.20;41.40;;;;;;4937935;29;20253;-82
2021/03/04 01:13:18;;;;;;;2.75;1.63;;;17.20;41.40;;;;;;4895752;29;20183;-82
2021/03/04 01:15:50;;;;;;;3.33;1.70;;;17.20;41.40;;;;;;4880808;29;20231;-81
2021/03/04 01:18:22;;;;;;;2.67;1.77;;;17.20;41.30;;;;;;4896701;29;20195;-81
2021/03/04 01:20:58;;;;;;;2.58;1.77;;;17.20;41.40;;;;;;4881110;29;20167;-81
2021/03/04 01:23:25;;;;;;;2.25;1.83;;;17.20;41.30;;;;;;4880446;29;20183;-81
2021/03/04 01:26:01;;;;;;;2.10;1.90;;;17.20;41.40;;;;;;4880164;29;20271;-82
2021/03/04 01:28:28;;;;;;;2.42;1.80;;;17.20;41.40;;;;;;4881106;29;20230;-82
2021/03/04 01:30:54;;;;;;;3.58;1.83;;;17.20;41.40;;;;;;4896064;29;20187;-81
2021/03/04 01:33:23;;;;;;;2.35;1.70;;;17.20;41.40;;;;;;4880278;29;20162;-81
2021/03/04 01:35:58;;;;;;;1.80;1.63;;;17.20;41.40;;;;;;4896198;29;20171;-82
2021/03/04 01:38:24;;;;;;;2.05;1.77;;;17.20;41.40;;;;;;4895560;29;20182;-81
2021/03/04 01:40:50;;;;;;;2.47;1.58;;;17.20;41.50;;;;;;4896750;29;20175;-82
2021/03/04 01:43:15;;;;;;;2.13;1.80;;;17.20;41.40;;;;;;4880198;29;20834;-81
2021/03/04 01:45:42;;;;;;;3.08;1.60;;;17.20;41.50;;;;;;4895987;29;20198;-81
2021/03/04 01:48:08;;;;;;;1.92;1.67;;;17.20;41.40;;;;;;4880614;29;20170;-82
2021/03/04 01:50:35;;;;;;;1.73;1.63;;;17.20;41.40;;;;;;4932745;29;20209;-81
2021/03/04 01:53:03;;;;;;;1.85;1.67;;;17.20;41.50;;;;;;4936516;29;20172;-82
2021/03/04 01:55:31;;;;;;;2.50;1.80;;;17.20;41.50;;;;;;4953225;29;20158;-82
2021/03/04 01:57:59;;;;;;;2.03;1.60;;;17.20;41.50;;;;;;4952876;29;20254;-81
2021/03/04 02:00:25;;;;;;;2.00;1.80;;;17.20;41.50;;;;;;4953034;29;20166;-81
2021/03/04 02:02:51;;;;;;;1.55;1.45;;;17.20;41.50;;;;;;4938849;29;20162;-82
2021/03/04 02:05:17;;;;;;;2.38;1.90;;;17.20;41.50;;;;;;4973719;29;20192;-81
2021/03/04 02:08:21;;;;;;;2.30;1.83;;;17.20;41.60;;;;;;4940868;29;20197;-82
2021/03/04 02:10:49;;;;;;;2.75;1.73;;;17.20;41.50;;;;;;4973072;29;20200;-81
2021/03/04 02:13:32;;;;;;;1.75;1.50;;;17.10;41.60;;;;;;4940601;29;20161;-81
2021/03/04 02:16:18;;;;;;;2.17;1.40;;;17.10;41.60;;;;;;4973072;29;20279;-81
2021/03/04 02:18:57;;;;;;;2.60;1.65;;;17.10;41.70;;;;;;4957816;29;20184;-81
2021/03/04 02:24:51;;;;;;;2.38;1.70;;;17.10;41.70;;;;;;4973680;29;20247;-81
2021/03/04 02:27:18;;;;;;;2.65;1.55;;;17.10;41.70;;;;;;4972530;29;20161;-81
2021/03/04 02:29:46;;;;;;;2.47;1.80;;;17.10;41.70;;;;;;4940526;29;20164;-81
2021/03/04 02:32:13;;;;;;;2.55;1.67;;;17.10;41.70;;;;;;4956017;29;20154;-81
2021/03/04 02:34:49;;;;;;;2.17;1.50;;;17.10;41.60;;;;;;4956060;29;20244;-81
2021/03/04 02:37:22;;;;;;;2.28;1.70;;;17.10;41.70;;;;;;4972045;29;20200;-81
2021/03/04 02:39:58;;;;;;;3.25;1.80;;;17.10;41.80;;;;;;4972837;29;20188;-81
2021/03/04 02:42:25;;;;;;;2.33;1.50;;;17.10;41.70;;;;;;4955970;29;20161;-81
2021/03/04 02:44:55;;;;;;;1.83;1.48;;;17.10;41.70;;;;;;4939546;29;20189;-81
2021/03/04 02:47:22;;;;;;;1.85;1.60;;;17.10;41.70;;;;;;4955807;29;20169;-81
2021/03/04 02:49:52;;;;;;;2.00;1.48;;;17.10;41.70;;;;;;4971914;29;20158;-81
2021/03/04 02:52:19;;;;;;;2.15;1.70;;;17.10;41.80;;;;;;4954871;29;20178;-82
2021/03/04 02:54:48;;;;;;;2.45;1.55;;;17.10;41.70;;;;;;4971404;29;20217;-81
2021/03/04 02:57:19;;;;;;;1.95;1.60;;;17.10;41.60;;;;;;4955796;29;20192;-82
2021/03/04 02:59:54;;;;;;;1.88;1.50;;;17.10;41.70;;;;;;4939700;29;20228;-81
2021/03/04 03:02:22;;;;;;;1.60;1.40;;;17.10;41.70;;;;;;4955194;29;20581;-82
2021/03/04 03:04:57;;;;;;;2.13;1.77;;;17.10;41.70;;;;;;4956506;29;20190;-82
2021/03/04 03:07:26;;;;;;;2.00;1.50;;;17.10;41.80;;;;;;4973280;29;20172;-82
2021/03/04 03:09:53;;;;;;;1.83;1.70;;;17.10;41.80;;;;;;4971078;29;20236;-81
2021/03/04 03:12:19;;;;;;;1.70;1.55;;;17.10;41.80;;;;;;4955500;29;20169;-82
2021/03/04 03:14:47;;;;;;;1.60;1.50;;;17.10;41.70;;;;;;4954089;29;20211;-81
2021/03/04 03:17:15;;;;;;;1.75;1.60;;;17.10;41.80;;;;;;4954780;29;20197;-81
2021/03/04 03:19:42;;;;;;;1.70;1.60;;;17.10;41.90;;;;;;4954695;29;20256;-82
2021/03/04 03:22:11;;;;;;;3.55;1.83;;;17.10;41.80;;;;;;4970846;29;20170;-81
2021/03/04 03:24:38;;;;;;;2.08;1.63;;;17.10;41.80;;;;;;4970693;29;20185;-81
2021/03/04 03:27:13;;;;;;;2.35;1.45;;;17.10;41.80;;;;;;4954342;29;20547;-82
2021/03/04 03:29:48;;;;;;;1.80;1.60;;;17.10;41.90;;;;;;4971825;29;20165;-81
2021/03/04 03:32:24;;;;;;;2.53;1.50;;;17.10;41.80;;;;;;4954972;29;20176;-81
2021/03/04 03:34:50;;;;;;;2.25;1.80;;;17.10;41.80;;;;;;4939443;29;20216;-81
2021/03/04 03:37:18;;;;;;;1.90;1.52;;;17.00;41.90;;;;;;4954706;29;20253;-81
2021/03/04 03:39:49;;;;;;;2.28;1.70;;;17.00;41.90;;;;;;4970937;29;20180;-82
2021/03/04 03:42:15;;;;;;;2.38;1.40;;;17.10;41.80;;;;;;4955368;29;20168;-82
2021/03/04 03:44:42;;;;;;;2.67;1.70;;;17.10;41.80;;;;;;4938419;29;20197;-81
2021/03/04 03:47:11;;;;;;;2.38;1.70;;;17.10;41.90;;;;;;4939368;29;20170;-81
2021/03/04 03:49:43;;;;;;;2.90;1.60;;;17.10;41.80;;;;;;4954731;29;20169;-81
2021/03/04 03:52:10;;;;;;;2.58;1.85;;;17.00;41.90;;;;;;4954347;29;20168;-81
2021/03/04 03:54:40;;;;;;;2.55;1.63;;;17.00;41.90;;;;;;4954158;29;20173;-81
2021/03/04 03:57:06;;;;;;;2.22;1.58;;;17.00;41.80;;;;;;4953382;29;20173;-81
2021/03/04 03:59:36;;;;;;;1.73;1.55;;;17.00;41.80;;;;;;4953754;29;20196;-81
2021/03/04 04:02:03;;;;;;;2.67;1.63;;;17.00;41.80;;;;;;4954110;29;20170;-81
2021/03/04 04:04:31;;;;;;;1.25;1.15;;;17.00;41.80;;;;;;4953903;29;20173;-82
2021/03/04 04:06:58;;;;;;;1.52;1.23;;;17.10;41.80;;;;;;4969691;29;20174;-81
2021/03/04 04:09:24;;;;;;;1.90;1.70;;;17.00;41.80;;;;;;4937392;29;20221;-82
2021/03/04 04:11:51;;;;;;;2.70;1.58;;;17.00;41.90;;;;;;4937510;29;20185;-82
2021/03/04 04:14:22;;;;;;;1.70;1.50;;;17.00;41.90;;;;;;4953072;29;20205;-81
2021/03/04 04:16:50;;;;;;;2.35;1.63;;;17.00;41.80;;;;;;4969024;29;20256;-81
2021/03/04 04:19:16;;;;;;;1.70;1.45;;;17.00;41.90;;;;;;4953396;29;20177;-81
2021/03/04 04:21:44;;;;;;;2.25;1.42;;;17.00;41.90;;;;;;4937567;29;20170;-82
2021/03/04 04:24:10;;;;;;;2.03;1.58;;;17.00;41.90;;;;;;4969138;29;20173;-81
2021/03/04 04:26:37;;;;;;;2.20;1.40;;;17.00;42.00;;;;;;4952854;29;20264;-81
2021/03/04 04:29:04;;;;;;;2.00;1.50;;;17.00;41.90;;;;;;4952562;29;20169;-81
2021/03/04 04:31:34;;;;;;;1.83;1.40;;;17.00;41.90;;;;;;4968486;29;20161;-82
2021/03/04 04:34:01;;;;;;;1.90;1.20;;;17.00;41.90;;;;;;4953110;29;20170;-81
2021/03/04 04:36:30;;;;;;;1.98;1.60;;;17.00;41.80;;;;;;4952806;29;20170;-81
2021/03/04 04:38:56;;;;;;;1.83;1.60;;;17.00;41.80;;;;;;4968481;29;20177;-81
2021/03/04 04:41:25;;;;;;;2.03;1.40;;;17.10;42.50;;;;;;4952345;29;20573;-81
2021/03/04 04:43:51;;;;;;;2.17;1.48;;;17.10;41.90;;;;;;4952186;29;20655;-82
2021/03/04 04:46:17;;;;;;;1.85;1.60;;;17.00;41.80;;;;;;4937046;29;20205;-82
2021/03/04 04:48:44;;;;;;;1.88;1.30;;;17.00;41.80;;;;;;4936816;29;20177;-82
2021/03/04 04:51:14;;;;;;;1.58;1.27;;;17.00;41.90;;;;;;4953871;29;20161;-82
2021/03/04 04:53:40;;;;;;;1.80;1.60;;;17.00;41.80;;;;;;4937659;29;20205;-81
2021/03/04 04:56:10;;;;;;;3.15;1.30;;;17.00;41.90;;;;;;4952647;29;20584;-81
2021/03/04 04:58:37;;;;;;;2.65;1.60;;;17.00;41.80;;;;;;4970154;29;20181;-82
2021/03/04 05:01:07;;;;;;;1.77;1.40;;;17.10;41.60;;;;;;4956863;29;20157;-81
2021/03/04 05:03:35;;;;;;;1.55;1.30;;;17.10;41.50;;;;;;4973467;29;20162;-81
2021/03/04 05:06:04;;;;;;;2.50;1.52;;;17.10;41.40;;;;;;4955586;29;20197;-82
2021/03/04 05:08:30;;;;;;;1.67;1.40;;;17.20;40.90;;;;;;4972158;29;20224;-81
2021/03/04 05:10:59;;;;;;;1.60;1.40;;;17.20;41.20;;;;;;4955796;29;20193;-81
2021/03/04 05:13:34;;;;;;;1.80;1.10;;;17.20;41.20;;;;;;4955540;29;20161;-82
2021/03/04 05:16:10;;;;;;;1.40;1.23;;;17.20;41.00;;;;;;4955358;29;20205;-81
2021/03/04 05:18:36;;;;;;;2.03;1.45;;;17.20;41.10;;;;;;4955855;29;20169;-81
2021/03/04 05:21:06;;;;;;;2.38;1.30;;;17.20;41.20;;;;;;4956983;29;20192;-82
2021/03/04 05:23:32;;;;;;;1.50;1.27;;;17.10;41.20;;;;;;4955785;29;20189;-81
2021/03/04 05:26:00;;;;;;;1.58;1.33;;;17.20;41.00;;;;;;4939420;29;20671;-82
2021/03/04 05:28:27;;;;;;;2.42;1.30;;;17.20;40.90;;;;;;4940281;29;20166;-81
2021/03/04 05:30:54;;;;;;;1.35;1.20;;;17.20;40.90;;;;;;4939260;29;20172;-81
2021/03/04 05:33:20;;;;;;;1.63;1.27;;;17.20;40.70;;;;;;4954910;29;20158;-81
2021/03/04 05:35:47;;;;;;;1.67;1.50;;;17.20;40.50;;;;;;4938517;29;20173;-81
2021/03/04 05:38:18;;;;;;;1.88;1.15;;;17.20;40.80;;;;;;4937315;29;20210;-81
2021/03/04 05:40:43;;;;;;;1.27;1.05;;;17.20;40.60;;;;;;4969613;29;20172;-81
2021/03/04 05:43:10;;;;;;;1.30;1.20;;;17.20;40.50;;;;;;4953677;29;20192;-81
2021/03/04 05:45:38;;;;;;;1.48;1.15;;;17.20;40.40;;;;;;4953771;29;20185;-81
2021/03/04 05:48:07;;;;;;;1.65;1.30;;;17.20;40.30;;;;;;4953911;29;20158;-82
2021/03/04 05:50:32;;;;;;;1.35;1.20;;;17.20;40.60;;;;;;4969746;29;20637;-81
2021/03/04 05:53:18;;;;;;;1.45;1.30;;;17.20;40.50;;;;;;4937553;29;20169;-81
2021/03/04 05:55:52;;;;;;;1.70;1.30;;;17.20;40.60;;;;;;4953329;29;20165;-81
2021/03/04 05:58:27;;;;;;;2.65;1.17;;;17.20;40.40;;;;;;4966652;29;20204;-81
2021/03/04 06:00:57;;;;;;;1.48;1.30;;;17.20;40.30;;;;;;4944991;29;20179;-81
2021/03/04 06:03:26;;;;;;;1.17;1.08;;;17.20;40.00;;;;;;4964791;29;20189;-81
2021/03/04 06:05:53;;;;;;;1.45;1.00;;;17.30;39.80;;;;;;4947380;29;20399;-82
2021/03/04 06:08:19;;;;;;;1.25;1.10;;;17.20;40.00;;;;;;4945577;29;20150;-81
2021/03/04 06:10:55;;;;;;;1.33;1.20;;;17.20;40.10;;;;;;4964358;29;20238;-81
2021/03/04 06:13:21;;;;;;;1.55;1.15;;;17.20;40.10;;;;;;4946593;29;20625;-82
2021/03/04 06:15:47;;;;;;;1.52;1.25;;;17.20;39.90;;;;;;4946865;29;20168;-81
2021/03/04 06:18:14;;;;;;;1.20;1.10;;;17.20;39.80;;;;;;4948043;29;20166;-82
2021/03/04 06:20:42;;;;;;;1.33;1.15;;;17.20;39.90;;;;;;4931748;29;20173;-81
2021/03/04 06:23:10;;;;;;;1.45;1.25;;;17.30;40.00;;;;;;4934403;29;20621;-82
2021/03/04 06:25:38;;;;;;;2.03;1.17;;;17.20;39.60;;;;;;4948728;29;20228;-82
2021/03/04 06:28:05;;;;;;;0.95;0.90;;;17.30;39.70;;;;;;4948406;29;20176;-81
2021/03/04 06:30:39;;;;;;;1.30;1.20;;;17.20;39.70;;;;;;4948422;29;20240;-81
2021/03/04 06:33:08;;;;;;;1.20;1.00;;;17.30;39.80;;;;;;4954425;29;20161;-82
2021/03/04 06:35:43;;;;;;;1.20;1.10;;;17.30;39.70;;;;;;4955430;29;20205;-82
2021/03/04 06:38:25;;;;;;;1.92;1.20;;;17.20;39.60;;;;;;4955529;29;20169;-82
2021/03/04 06:40:54;;;;;;;1.65;1.30;;;17.20;39.60;;;;;;4939955;29;20177;-82
2021/03/04 06:43:24;;;;;;;1.33;1.20;;;17.20;39.80;;;;;;4955708;29;20153;-82
2021/03/04 06:46:13;;;;;;;1.63;1.20;;;17.20;39.70;;;;;;4955172;29;20675;-82
2021/03/04 06:48:51;;;;;;;1.85;1.20;;;17.20;39.70;;;;;;4971296;28;20188;-82
2021/03/04 06:51:17;;;;;;;1.35;1.10;;;17.20;39.70;;;;;;4958435;29;20189;-82
2021/03/04 06:53:53;;;;;;;1.35;1.08;;;17.20;39.20;;;;;;4959095;29;20161;-82
2021/03/04 06:56:31;;;;;;;2.35;1.20;;;17.20;39.50;;;;;;4942083;29;20621;-82
2021/03/04 06:59:01;;;;;;;1.95;1.27;;;17.20;39.60;;;;;;4957355;29;20200;-82
2021/03/04 07:01:41;;;;;;;1.50;0.95;;;17.20;39.60;;;;;;4925774;29;20217;-82
2021/03/04 07:04:14;;;;;;;1.10;1.00;;;17.20;39.60;;;;;;4926137;29;20213;-81
2021/03/04 07:06:41;;;;;;;1.55;1.25;;;17.20;39.60;;;;;;4940858;29;20197;-81
2021/03/04 07:09:07;;;;;;;1.30;1.10;;;17.20;39.80;;;;;;4925100;29;20260;-82
2021/03/04 07:11:36;;;;;;;1.63;1.10;;;17.20;39.70;;;;;;4922985;29;20264;-81
2021/03/04 07:14:07;;;;;;;1.40;1.10;;;17.20;39.60;;;;;;4921202;29;20186;-81
2021/03/04 07:16:37;;;;;;;2.50;1.20;;;17.20;39.60;;;;;;4952665;29;20304;-81
2021/03/04 07:19:04;;;;;;;1.30;1.10;;;17.20;39.60;;;;;;4921108;29;20288;-81
2021/03/04 07:21:56;;;;;;;1.30;1.10;;;17.20;39.50;;;;;;4937301;29;20177;-81
2021/03/04 07:24:21;;;;;;;1.20;1.10;;;17.20;39.30;;;;;;4950684;29;20196;-81
2021/03/04 07:26:49;;;;;;;1.27;0.90;;;17.20;39.20;;;;;;4922189;29;20166;-81
2021/03/04 07:29:18;;;;;;;1.63;1.17;;;17.30;39.10;;;;;;4926823;29;20181;-81
2021/03/04 07:31:47;;;;;;;2.10;1.00;;;17.30;38.90;;;;;;4957357;29;20185;-81
2021/03/04 07:34:15;;;;;;;1.25;1.15;;;17.30;39.00;;;;;;4941328;29;20177;-81
2021/03/04 07:36:44;;;;;;;0.82;0.80;;;17.20;39.00;;;;;;4956882;29;20173;-81
2021/03/04 07:39:10;;;;;;;0.80;0.80;;;17.30;38.90;;;;;;4940393;29;20187;-81
2021/03/04 07:41:44;;;;;;;1.23;1.13;;;17.30;38.90;;;;;;4941243;29;20249;-81
2021/03/04 07:44:25;;;;;;;1.00;0.90;;;17.30;38.90;;;;;;4973084;29;20184;-81
2021/03/04 07:46:56;;;;;;;1.55;1.02;;;17.30;38.90;;;;;;4957627;29;20188;-81
2021/03/04 07:49:29;;;;;;;1.13;1.02;;;17.20;38.90;;;;;;4957665;29;20165;-81
2021/03/04 07:52:13;;;;;;;1.20;1.10;;;17.20;39.00;;;;;;4958414;29;20173;-80
2021/03/04 07:54:44;;;;;;;1.95;1.10;;;17.20;38.80;;;;;;4975739;29;20154;-81
2021/03/04 07:57:11;;;;;;;1.20;1.10;;;17.30;38.80;;;;;;4956078;29;20185;-80
2021/03/04 08:00:03;;;;;;;1.55;1.27;;;17.30;38.50;;;;;;4912785;29;20183;-80
2021/03/04 08:02:35;;;;;;;1.13;1.00;;;17.30;38.60;;;;;;4916689;29;20160;-80
2021/03/04 08:05:14;;;;;;;1.67;1.25;;;17.30;38.60;;;;;;4901086;29;20202;-79
2021/03/04 08:07:45;;;;;;;2.83;1.20;;;17.30;38.50;;;;;;4916840;29;20170;-80
2021/03/04 08:10:22;;;;;;;1.10;0.95;;;17.30;38.50;;;;;;4916519;29;20218;-80
2021/03/04 08:12:58;;;;;;;1.27;1.00;;;17.40;38.40;;;;;;4915333;29;20170;-80
2021/03/04 08:15:50;;;;;;;1.33;1.10;;;17.30;38.50;;;;;;4914598;29;20575;-80
2021/03/04 08:18:22;;;;;;;1.13;1.02;;;17.20;38.70;;;;;;4911641;29;20226;-80
2021/03/04 08:21:15;;;;;;;1.27;0.85;;;17.30;38.70;;;;;;4899182;29;20190;-80
2021/03/04 08:23:42;;;;;;;1.08;0.90;;;17.30;38.40;;;;;;4928158;29;20685;-80
2021/03/04 08:26:24;;;;;;;0.95;0.85;;;17.30;38.30;;;;;;4884131;29;20214;-80
2021/03/04 08:29:11;;;;;;;1.10;0.95;;;17.30;38.50;;;;;;4914896;29;20178;-80
2021/03/04 08:31:48;;;;;;;1.13;0.80;;;17.30;38.20;;;;;;4947810;29;20192;-80
2021/03/04 08:34:14;;;;;;;1.88;0.90;;;17.30;38.20;;;;;;4953136;29;20236;-80
2021/03/04 08:36:47;;;;;;;1.15;1.00;;;17.40;38.00;;;;;;4954312;29;20169;-80
2021/03/04 08:39:23;;;;;;;1.58;0.98;;;17.40;38.20;;;;;;4954219;29;20168;-81
2021/03/04 08:42:00;;;;;;;0.88;0.88;;;17.40;38.00;;;;;;4937344;29;20173;-82
2021/03/04 08:44:27;;;;;;;0.90;0.80;;;17.40;38.00;;;;;;4938890;29;20180;-80
2021/03/04 08:46:54;;;;;;;1.13;1.00;;;17.50;37.90;;;;;;4953825;29;20176;-81
2021/03/04 08:49:22;;;;;;;1.35;0.90;;;17.50;37.90;;;;;;4954011;29;20230;-80
2021/03/04 08:51:48;;;;;;;1.10;1.00;;;17.50;37.60;;;;;;4938493;29;20193;-80
2021/03/04 08:54:27;;;;;;;0.82;0.80;;;17.50;37.70;;;;;;4954243;29;20190;-81
2021/03/04 08:56:55;;;;;;;1.23;0.85;;;17.50;37.70;;;;;;4953987;29;20153;-81
2021/03/04 08:59:27;;;;;;;1.05;0.95;;;17.50;37.60;;;;;;4953182;29;20169;-80
2021/03/04 09:01:54;;;;;;;1.90;1.00;;;17.50;37.60;;;;;;4954982;29;20192;-80
2021/03/04 09:04:25;;;;;;;2.35;0.80;;;17.50;37.70;;;;;;4954752;29;20177;-80
2021/03/04 09:06:56;;;;;;;0.70;0.70;;;17.50;37.60;;;;;;4953928;29;20158;-80
2021/03/04 09:09:33;;;;;;;3.28;1.00;;;17.50;37.70;;;;;;4937812;29;20526;-80
2021/03/04 09:12:26;;;;;;;1.95;0.90;;;17.60;37.50;;;;;;4954120;29;20529;-80
2021/03/04 09:15:08;;;;;;;7.43;1.05;;;17.50;37.70;;;;;;4954430;29;20237;-81
2021/03/04 09:17:48;;;;;;;3.15;1.23;;;17.50;37.80;;;;;;4955349;29;20215;-80
2021/03/04 09:20:15;;;;;;;3.60;1.13;;;17.50;37.60;;;;;;4970312;29;20193;-80
2021/03/04 09:22:50;;;;;;;6.50;0.93;;;17.60;37.30;;;;;;4940761;29;20173;-80
2021/03/04 09:25:18;;;;;;;5.55;1.20;;;17.60;37.40;;;;;;4956909;29;20208;-80
2021/03/04 09:27:47;;;;;;;4.22;1.40;;;17.60;37.30;;;;;;4956458;29;20173;-80
2021/03/04 09:30:27;;;;;;;3.20;0.90;;;17.60;37.60;;;;;;4970789;29;20165;-81
2021/03/04 09:33:16;;;;;;;4.40;1.00;;;17.60;37.30;;;;;;4973277;29;20158;-82
2021/03/04 09:36:17;;;;;;;4.88;0.90;;;17.70;37.30;;;;;;4957258;29;20193;-81
2021/03/04 09:38:58;;;;;;;5.72;0.95;;;17.60;37.30;;;;;;4957850;29;20173;-82
2021/03/04 09:41:27;;;;;;;1.75;1.10;;;17.70;37.10;;;;;;4972869;29;20181;-80
2021/03/04 09:44:09;;;;;;;4.15;1.20;;;17.60;37.30;;;;;;4955320;29;20169;-81
2021/03/04 09:46:48;;;;;;;1.85;0.80;;;17.60;37.20;;;;;;4955715;29;20201;-81
2021/03/04 09:49:16;;;;;;;2.92;0.93;;;17.70;37.10;;;;;;4954721;29;20168;-81
2021/03/04 09:51:45;;;;;;;4.70;1.55;;;17.70;37.10;;;;;;4972504;29;20165;-81
2021/03/04 09:54:33;;;;;;;3.45;0.90;;;17.70;37.00;;;;;;4955004;29;20172;-81
2021/03/04 09:57:11;;;;;;;4.90;1.08;;;17.60;37.50;;;;;;4955985;29;20253;-81
2021/03/04 09:59:49;;;;;;;1.05;0.85;;;17.60;37.50;;;;;;4971657;29;20153;-81
2021/03/04 10:02:20;;;;;;;2.13;1.27;;;17.50;37.20;;;;;;4954593;29;20173;-79
2021/03/04 10:05:03;;;;;;;2.40;1.10;;;17.80;36.90;;;;;;4972415;29;20201;-81
2021/03/04 10:07:33;;;;;;;2.58;0.82;;;17.80;36.60;;;;;;4957707;29;20169;-81
2021/03/04 10:10:05;;;;;;;4.65;0.90;;;17.80;36.90;;;;;;4955042;29;20656;-81
2021/03/04 10:12:50;;;;;;;4.35;1.10;;;17.70;36.90;;;;;;4939028;29;20216;-81
2021/03/04 10:15:39;;;;;;;1.15;0.80;;;17.70;37.70;;;;;;4971244;29;20173;-81
2021/03/04 10:18:13;;;;;;;2.08;0.68;;;17.70;36.70;;;;;;4955819;29;20173;-81
2021/03/04 10:20:44;;;;;;;5.18;1.10;;;17.80;36.70;;;;;;4956430;29;20185;-81
2021/03/04 10:23:11;;;;;;;2.58;1.02;;;17.80;36.80;;;;;;4973235;28;20145;-82
2021/03/04 10:25:45;;;;;;;3.20;0.90;;;17.90;36.70;;;;;;4961102;29;20201;-82
2021/03/04 10:28:12;;;;;;;3.25;0.90;;;17.80;36.50;;;;;;4961222;29;20189;-82
2021/03/04 10:31:01;;;;;;;3.63;1.10;;;17.80;36.70;;;;;;4961570;29;20170;-82
2021/03/04 10:33:39;;;;;;;4.25;1.10;;;17.80;36.90;;;;;;4977897;29;20237;-81
2021/03/04 10:36:24;;;;;;;4.78;0.85;;;17.80;37.10;;;;;;4962334;29;20232;-82
2021/03/04 10:38:58;;;;;;;2.53;0.90;;;17.70;36.90;;;;;;4961332;29;20165;-83
2021/03/04 10:41:54;;;;;;;2.00;0.82;;;17.80;36.70;;;;;;4960965;29;20196;-81
2021/03/04 10:44:40;;;;;;;1.02;0.70;;;17.80;36.80;;;;;;4960818;29;20175;-81
2021/03/04 10:47:11;;;;;;;4.90;1.10;;;17.90;36.60;;;;;;4976915;29;20247;-82
2021/03/04 10:49:43;;;;;;;2.72;0.93;;;17.90;36.60;;;;;;4976607;29;20166;-82
2021/03/04 10:52:15;;;;;;;2.10;0.90;;;17.80;36.90;;;;;;4960721;29;20168;-82
2021/03/04 10:54:58;;;;;;;5.47;1.17;;;17.80;36.90;;;;;;4960406;29;20232;-82
2021/03/04 10:57:29;;;;;;;2.00;0.88;;;17.80;36.70;;;;;;4973652;29;20285;-82
2021/03/04 10:59:58;;;;;;;6.18;1.05;;;17.80;36.70;;;;;;4959612;29;20200;-83
2021/03/04 11:02:34;;;;;;;6.43;1.42;;;17.90;36.60;;;;;;4961225;29;20173;-82
2021/03/04 11:05:02;;;;;;;7.18;1.05;;;17.90;36.60;;;;;;4957857;29;20204;-82
2021/03/04 11:07:29;;;;;;;5.50;1.40;;;17.90;36.50;;;;;;4974811;29;20157;-82
2021/03/04 11:09:54;;;;;;;7.63;1.13;;;17.80;36.90;;;;;;4957723;29;20232;-81
2021/03/04 11:12:30;;;;;;;4.40;1.10;;;17.80;36.90;;;;;;4956806;29;20182;-82
2021/03/04 11:14:58;;;;;;;5.95;1.48;;;17.90;36.70;;;;;;4959413;29;20204;-82
2021/03/04 11:17:27;;;;;;;2.88;0.90;;;18.00;36.70;;;;;;4958210;29;20177;-82
2021/03/04 11:19:52;;;;;;;2.85;0.95;;;17.90;36.60;;;;;;4958108;29;20181;-79
2021/03/04 11:22:27;;;;;;;7.30;1.10;;;18.00;36.20;;;;;;4957667;29;20164;-82
2021/03/04 11:24:54;;;;;;;3.05;1.52;;;18.00;36.20;;;;;;4957247;29;20205;-80
2021/03/04 11:27:21;;;;;;;6.18;0.95;;;18.00;36.20;;;;;;4956811;29;20169;-80
2021/03/04 11:29:48;;;;;;;3.58;0.90;;;18.00;36.20;;;;;;4955925;29;20173;-81
2021/03/04 11:32:16;;;;;;;6.05;1.20;;;18.10;36.10;;;;;;4956434;29;20169;-81
2021/03/04 11:34:45;;;;;;;4.88;1.17;;;18.10;36.10;;;;;;4973983;28;20157;-81
2021/03/04 11:37:11;;;;;;;8.32;1.60;;;18.10;36.10;;;;;;4939655;29;20169;-80
2021/03/04 11:39:37;;;;;;;4.68;1.00;;;18.00;36.80;;;;;;4953321;29;20209;-80
2021/03/04 11:42:06;;;;;;;5.78;1.42;;;18.00;36.40;;;;;;4969834;29;20169;-80
2021/03/04 11:44:32;;;;;;;4.40;0.85;;;18.00;36.30;;;;;;4932466;29;20181;-79
2021/03/04 11:46:58;;;;;;;4.75;1.00;;;18.00;36.20;;;;;;4935418;29;20186;-79
2021/03/04 11:49:26;;;;;;;5.68;1.20;;;18.00;36.20;;;;;;4934579;29;20146;-80
2021/03/04 11:51:53;;;;;;;6.50;1.10;;;18.00;36.40;;;;;;4949514;29;20605;-80
2021/03/04 11:54:19;;;;;;;7.75;1.10;;;17.90;36.50;;;;;;4948557;29;20166;-80
2021/03/04 11:56:47;;;;;;;6.07;1.08;;;17.90;36.30;;;;;;4933375;29;20167;-80
2021/03/04 11:59:13;;;;;;;10.23;1.50;;;18.00;36.30;;;;;;4951020;29;20186;-80
2021/03/04 12:01:45;;;;;;;10.43;2.03;;;18.00;36.40;;;;;;4934552;29;20189;-80
2021/03/04 12:04:10;;;;;;;20.13;2.35;;;18.00;36.30;;;;;;4934084;29;20175;-80
2021/03/04 12:06:40;;;;;;;16.92;1.80;;;18.10;36.10;;;;;;4922206;29;20224;-82
2021/03/04 12:09:06;;;;;;;10.73;1.65;;;18.10;36.10;;;;;;4934306;29;20230;-82
2021/03/04 12:11:33;;;;;;;12.95;1.70;;;18.00;36.00;;;;;;4946755;29;20169;-81
2021/03/04 12:13:59;;;;;;;21.65;1.80;;;18.10;36.10;;;;;;4947057;29;20230;-80
2021/03/04 12:16:38;;;;;;;8.48;1.30;;;18.10;35.90;;;;;;4933416;29;20190;-81
2021/03/04 12:19:05;;;;;;;19.08;1.90;;;18.10;35.80;;;;;;4933334;29;20173;-80
2021/03/04 12:21:31;;;;;;;12.93;1.70;;;18.10;36.00;;;;;;4932633;29;20174;-80
2021/03/04 12:23:57;;;;;;;13.65;1.92;;;18.10;35.80;;;;;;4950182;29;20260;-80
2021/03/04 12:26:25;;;;;;;10.48;1.75;;;18.10;35.80;;;;;;4949273;29;20197;-81
2021/03/04 12:28:52;;;;;;;11.13;1.90;;;18.10;35.70;;;;;;4948728;29;20168;-79
2021/03/04 12:31:18;;;;;;;19.50;2.10;;;18.10;35.70;;;;;;4948714;29;20652;-79
2021/03/04 12:33:45;;;;;;;16.75;3.17;;;18.10;36.00;;;;;;4949028;29;20260;-80
2021/03/04 12:36:11;;;;;;;15.40;1.92;;;18.10;36.00;;;;;;4912612;29;20279;-80
2021/03/04 12:38:46;;;;;;;22.13;1.98;;;18.10;35.90;;;;;;4897807;29;20663;-80
2021/03/04 12:41:11;;;;;;;15.77;1.75;;;18.10;36.00;;;;;;4911600;29;20182;-80
2021/03/04 12:43:37;;;;;;;17.70;2.25;;;18.10;36.00;;;;;;4881765;29;20885;-80
2021/03/04 12:46:04;;;;;;;19.98;2.53;;;18.10;36.10;;;;;;4868463;29;20215;-80
2021/03/04 12:48:31;;;;;;;13.88;1.70;;;18.00;36.00;;;;;;4913677;29;20655;-80
2021/03/04 12:51:00;;;;;;;13.35;1.55;;;18.10;36.00;;;;;;4897877;29;20238;-80
2021/03/04 12:53:34;;;;;;;14.32;1.90;;;18.10;35.80;;;;;;4897752;29;20190;-80
2021/03/04 12:56:10;;;;;;;12.73;1.50;;;18.10;36.00;;;;;;4897257;29;20193;-79
2021/03/04 12:58:40;;;;;;;12.73;1.92;;;18.10;35.70;;;;;;4898266;29;20198;-80
2021/03/04 13:01:24;;;;;;;15.68;2.50;;;18.10;35.50;;;;;;4913467;29;20214;-80
2021/03/04 13:03:55;;;;;;;17.88;1.65;;;18.10;35.80;;;;;;4913922;29;20227;-80
2021/03/04 13:06:23;;;;;;;8.32;1.80;;;18.20;35.80;;;;;;4918172;29;20216;-79
2021/03/04 13:08:51;;;;;;;21.60;2.15;;;18.10;35.50;;;;;;4934315;29;20178;-81